Time;durP1;ratioP1;P1;durP2;ratioP2;P2;SDS_P1;SDS_P2;PMS_P1;PMS_P2;Temp;Humidity;BMP_temperature;BMP_pressure;BME280_temperature;BME280_humidity;BME280_pressure;Samples;Min_cycle;Max_cycle;Signal;HPM_P1;HPM_P2
2023/01/31 00:00:28;;;;;;;26.15;1.83;;;;;;;-146.25;100.00;52485.81;2088099;28;39378;-75
2023/01/31 00:01:33;;;;;;;28.50;2.20;;;;;;;-146.25;100.00;52483.78;2087476;28;32668;-75
2023/01/31 00:02:35;;;;;;;21.63;2.33;;;;;;;-146.25;100.00;52465.53;2087341;28;37222;-74
2023/01/31 00:03:38;;;;;;;26.90;2.30;;;;;;;-146.25;100.00;52485.81;2087660;28;43004;-74
2023/01/31 00:04:40;;;;;;;22.05;1.77;;;;;;;-146.25;100.00;52479.72;2087397;28;41056;-74
2023/01/31 00:05:42;;;;;;;26.55;2.05;;;;;;;-146.25;100.00;52487.81;2087252;28;41437;-74
2023/01/31 00:06:50;;;;;;;20.90;1.95;;;;;;;-146.25;100.00;52445.25;2088028;28;36426;-74
2023/01/31 00:07:52;;;;;;;32.85;2.63;;;;;;;-146.25;100.00;52473.63;2088681;28;20041;-74
2023/01/31 00:08:55;;;;;;;24.98;2.17;;;;;;;-146.25;100.00;52508.09;2087845;28;35779;-74
2023/01/31 00:09:57;;;;;;;25.15;2.50;;;;;;;-146.25;100.00;52465.53;2087087;28;38165;-74
2023/01/31 00:11:01;;;;;;;28.83;2.35;;;;;;;-146.25;100.00;52479.72;2088080;28;20041;-74
2023/01/31 00:12:03;;;;;;;36.88;2.97;;;;;;;-146.25;100.00;52493.91;2087683;28;41108;-74
2023/01/31 00:13:04;;;;;;;25.50;2.58;;;;;;;-146.25;100.00;52493.91;2087846;28;41012;-74
2023/01/31 00:14:09;;;;;;;37.85;2.65;;;;;;;-146.25;100.00;52489.84;2088434;28;20448;-74
2023/01/31 00:15:15;;;;;;;17.85;1.65;;;;;;;-146.25;100.00;52461.47;2087652;28;41228;-74
2023/01/31 00:16:19;;;;;;;29.27;2.35;;;;;;;-146.25;100.00;52431.06;2088095;28;20171;-74
2023/01/31 00:17:20;;;;;;;29.42;2.42;;;;;;;-146.25;100.00;52506.06;2087637;28;38980;-74
2023/01/31 00:18:22;;;;;;;26.13;2.90;;;;;;;-146.25;100.00;52469.56;2087574;28;40111;-74
2023/01/31 00:19:24;;;;;;;26.02;3.05;;;;;;;-146.25;100.00;52481.75;2087958;28;37082;-74
2023/01/31 00:20:26;;;;;;;28.85;2.20;;;;;;;-146.25;100.00;52445.25;2087878;28;39248;-73
2023/01/31 00:21:30;;;;;;;18.10;2.22;;;;;;;-146.25;100.00;52429.03;2087706;28;39563;-75
2023/01/31 00:22:31;;;;;;;23.75;2.50;;;;;;;-146.25;100.00;52459.44;2087107;28;39275;-74
2023/01/31 00:23:33;;;;;;;20.73;2.30;;;;;;;-146.25;100.00;52491.88;2087138;28;39230;-74
2023/01/31 00:24:35;;;;;;;35.08;3.05;;;;;;;-146.25;100.00;52465.53;2088627;28;20165;-74
2023/01/31 00:25:37;;;;;;;21.90;2.45;;;;;;;-146.25;100.00;52477.69;2087622;28;41714;-74
2023/01/31 00:26:40;;;;;;;30.05;2.38;;;;;;;-146.25;100.00;52481.75;2087652;28;37905;-74
2023/01/31 00:27:42;;;;;;;22.70;2.40;;;;;;;-146.25;100.00;52457.41;2087895;28;20053;-74
2023/01/31 00:28:47;;;;;;;25.35;1.77;;;;;;;-146.25;100.00;52487.81;2087781;28;20101;-74
2023/01/31 00:29:48;;;;;;;30.00;2.50;;;;;;;-146.25;100.00;52447.28;2087821;28;20072;-74
2023/01/31 00:30:52;;;;;;;33.10;2.67;;;;;;;-146.25;100.00;52485.81;2087712;28;21550;-74
2023/01/31 00:31:54;;;;;;;30.33;2.75;;;;;;;-146.25;100.00;52475.66;2087762;28;31940;-74
2023/01/31 00:32:56;;;;;;;19.17;2.45;;;;;;;-146.25;100.00;52483.78;2087786;28;27713;-75
2023/01/31 00:34:01;;;;;;;30.27;2.97;;;;;;;-146.25;100.00;52479.72;2087329;28;20096;-74
2023/01/31 00:35:03;;;;;;;26.33;2.28;;;;;;;-146.25;100.00;52469.56;2087880;28;20042;-74
2023/01/31 00:36:08;;;;;;;27.25;2.50;;;;;;;-146.25;100.00;52473.63;2095524;28;23608;-75
2023/01/31 00:37:12;;;;;;;26.90;2.67;;;;;;;-146.25;100.00;52461.47;2079047;28;35080;-75
2023/01/31 00:38:14;;;;;;;30.23;2.80;;;;;;;-146.25;100.00;52491.88;2081187;28;20052;-75
2023/01/31 00:39:16;;;;;;;26.10;2.28;;;;;;;-146.25;100.00;52449.31;2087594;28;37323;-72
2023/01/31 00:40:19;;;;;;;29.88;2.38;;;;;;;-146.25;100.00;52457.41;2087596;28;20038;-74
2023/01/31 00:41:24;;;;;;;33.20;2.45;;;;;;;-146.25;100.00;52489.84;2079172;28;27745;-74
2023/01/31 00:42:26;;;;;;;25.83;2.53;;;;;;;-146.25;100.00;52457.41;2079955;28;34443;-74
2023/01/31 00:43:28;;;;;;;25.88;1.67;;;;;;;-146.25;100.00;52447.28;2079331;28;32578;-74
2023/01/31 00:44:30;;;;;;;29.65;2.15;;;;;;;-146.25;100.00;52485.81;2087625;28;25331;-74
2023/01/31 00:45:32;;;;;;;34.28;2.22;;;;;;;-146.25;100.00;52465.53;2088240;28;37999;-74
2023/01/31 00:46:35;;;;;;;19.23;1.98;;;;;;;-146.25;100.00;52497.97;2087479;28;29242;-74
2023/01/31 00:47:37;;;;;;;24.60;2.15;;;;;;;-146.25;100.00;52502.03;2086887;28;32913;-74
2023/01/31 00:48:39;;;;;;;25.95;2.30;;;;;;;-146.25;100.00;52457.41;2087758;28;20918;-74
2023/01/31 00:49:41;;;;;;;25.00;2.28;;;;;;;-146.25;100.00;52493.91;2088228;28;20030;-74
2023/01/31 00:50:42;;;;;;;28.77;2.15;;;;;;;-146.25;100.00;52433.06;2087852;28;35597;-74
2023/01/31 00:51:48;;;;;;;29.17;2.20;;;;;;;-146.25;100.00;52504.03;2087895;28;20056;-74
2023/01/31 00:52:50;;;;;;;24.83;2.25;;;;;;;-146.25;100.00;52483.78;2087070;28;25714;-74
2023/01/31 00:53:55;;;;;;;22.38;2.13;;;;;;;-146.25;100.00;52447.28;2088027;28;20929;-74
2023/01/31 00:54:57;;;;;;;17.42;2.28;;;;;;;-146.25;100.00;52471.59;2094923;28;31911;-74
2023/01/31 00:56:09;;;;;;;29.27;2.25;;;;;;;-146.25;100.00;52512.16;2086681;28;32896;-73
2023/01/31 00:57:11;;;;;;;22.70;1.92;;;;;;;-146.25;100.00;52429.03;2087787;28;20919;-74
2023/01/31 00:58:13;;;;;;;20.50;2.15;;;;;;;-146.25;100.00;52451.31;2087431;28;20184;-74
2023/01/31 00:59:15;;;;;;;26.30;2.20;;;;;;;-146.25;100.00;52469.56;2095927;28;20029;-74
2023/01/31 01:00:18;;;;;;;29.70;2.28;;;;;;;-146.25;100.00;52453.34;2087595;28;20172;-74
2023/01/31 01:01:27;;;;;;;18.98;1.85;;;;;;;-146.25;100.00;52483.78;2087191;28;20046;-74
2023/01/31 01:02:31;;;;;;;23.20;1.58;;;;;;;-146.25;100.00;52489.84;2085494;28;36879;-74
2023/01/31 01:03:35;;;;;;;20.08;1.98;;;;;;;-146.25;100.00;52465.53;2071979;28;20836;-74
2023/01/31 01:04:37;;;;;;;22.30;1.77;;;;;;;-146.25;100.00;52491.88;2072369;28;20400;-74
2023/01/31 01:05:40;;;;;;;28.55;1.75;;;;;;;-146.25;100.00;52489.84;2087553;28;30821;-75
2023/01/31 01:06:41;;;;;;;25.40;1.95;;;;;;;-146.25;100.00;52469.56;2086913;28;40107;-73
2023/01/31 01:07:45;;;;;;;25.50;1.85;;;;;;;-146.25;100.00;52459.44;2088072;28;20045;-74
2023/01/31 01:08:47;;;;;;;25.42;2.05;;;;;;;-146.25;100.00;52473.63;2088893;28;20041;-74
2023/01/31 01:09:51;;;;;;;21.77;2.28;;;;;;;-146.25;100.00;52461.47;2080981;28;20211;-74
2023/01/31 01:10:52;;;;;;;26.85;1.85;;;;;;;-146.25;100.00;52479.72;2088776;28;29395;-74
2023/01/31 01:11:58;;;;;;;25.77;2.35;;;;;;;-146.25;100.00;52485.81;2089117;28;21008;-74
2023/01/31 01:12:59;;;;;;;23.95;2.65;;;;;;;-146.25;100.00;52473.63;2089376;28;20052;-74
2023/01/31 01:14:04;;;;;;;30.35;2.25;;;;;;;-146.25;100.00;52481.75;2088704;28;23083;-74
2023/01/31 01:15:07;;;;;;;32.95;2.92;;;;;;;-146.25;100.00;52477.69;2088987;28;37177;-73
2023/01/31 01:16:17;;;;;;;25.58;2.53;;;;;;;-146.25;100.00;52443.22;2096669;28;34609;-75
2023/01/31 01:17:20;;;;;;;26.02;1.85;;;;;;;-146.25;100.00;52502.03;2088910;28;20049;-75
2023/01/31 01:18:23;;;;;;;27.10;3.20;;;;;;;-146.25;100.00;52473.63;2089091;28;21029;-73
2023/01/31 01:19:25;;;;;;;25.27;2.33;;;;;;;-146.25;100.00;52510.13;2089103;28;20101;-73
2023/01/31 01:20:26;;;;;;;30.17;2.35;;;;;;;-146.25;100.00;52506.06;2089096;28;37204;-73
2023/01/31 01:21:38;;;;;;;23.88;2.05;;;;;;;-146.25;100.00;52485.81;2089491;28;20978;-75
2023/01/31 01:22:41;;;;;;;25.50;2.15;;;;;;;-146.25;100.00;52493.91;2089019;28;20107;-74
2023/01/31 01:23:46;;;;;;;32.22;2.38;;;;;;;-146.25;100.00;52483.78;2082344;28;20042;-75
2023/01/31 01:24:48;;;;;;;20.35;2.25;;;;;;;-146.25;100.00;52483.78;2081264;28;20976;-74
2023/01/31 01:25:49;;;;;;;23.02;1.73;;;;;;;-146.25;100.00;52471.59;2088719;28;20037;-74
2023/01/31 01:26:53;;;;;;;29.02;2.25;;;;;;;-146.25;100.00;52467.56;2088662;28;21430;-74
2023/01/31 01:27:55;;;;;;;31.65;2.38;;;;;;;-146.25;100.00;52459.44;2088840;28;20960;-74
2023/01/31 01:29:02;;;;;;;23.60;2.15;;;;;;;-146.25;100.00;52502.03;2088630;28;20053;-74
2023/01/31 01:30:05;;;;;;;19.27;1.42;;;;;;;-146.25;100.00;52414.84;2089429;28;22049;-75
2023/01/31 01:31:09;;;;;;;27.85;2.40;;;;;;;-146.25;100.00;52457.41;2088251;28;31900;-74
2023/01/31 01:32:14;;;;;;;22.10;1.95;;;;;;;-146.25;100.00;52489.84;2081448;28;20049;-74
2023/01/31 01:33:16;;;;;;;30.45;2.15;;;;;;;-146.25;100.00;52493.91;2081556;28;20042;-75
2023/01/31 01:34:18;;;;;;;24.85;2.20;;;;;;;-146.25;100.00;52479.72;2088930;28;20945;-75
2023/01/31 01:35:20;;;;;;;28.50;2.28;;;;;;;-146.25;100.00;52491.88;2096442;28;33725;-75
2023/01/31 01:36:24;;;;;;;24.95;2.22;;;;;;;-146.25;100.00;52467.56;2089026;28;20041;-75
2023/01/31 01:37:26;;;;;;;28.80;3.03;;;;;;;-146.25;100.00;52489.84;2088200;28;36109;-75
2023/01/31 01:38:33;;;;;;;29.48;2.58;;;;;;;-146.25;100.00;52481.75;2089572;28;20025;-75
2023/01/31 01:39:35;;;;;;;28.58;2.30;;;;;;;-146.25;100.00;52443.22;2089446;28;20115;-74
2023/01/31 01:40:37;;;;;;;24.73;2.28;;;;;;;-146.25;100.00;52483.78;2089196;28;34380;-74
2023/01/31 01:41:40;;;;;;;29.15;2.70;;;;;;;-146.25;100.00;52477.69;2088094;28;30924;-75
2023/01/31 01:42:42;;;;;;;35.13;2.60;;;;;;;-146.25;100.00;52455.38;2089290;28;20049;-75
2023/01/31 01:43:55;;;;;;;32.00;2.10;;;;;;;-146.25;100.00;52489.84;2088722;28;26426;-75
2023/01/31 01:45:01;;;;;;;26.85;1.75;;;;;;;-146.25;100.00;52459.44;2089226;28;36765;-74
2023/01/31 01:46:02;;;;;;;27.67;1.90;;;;;;;-146.25;100.00;52487.81;2089569;28;34498;-73
2023/01/31 01:47:43;;;;;;;25.80;2.58;;;;;;;-146.25;100.00;52489.84;2088509;28;25790;-75
2023/01/31 01:48:50;;;;;;;29.13;2.10;;;;;;;-146.25;100.00;52453.34;2085534;28;34461;-75
2023/01/31 01:50:08;;;;;;;26.48;2.17;;;;;;;-146.25;100.00;52463.50;2086469;28;28719;-75
2023/01/31 01:51:12;;;;;;;24.63;1.98;;;;;;;-146.25;100.00;52502.03;2088369;28;36402;-75
2023/01/31 01:52:16;;;;;;;25.08;2.03;;;;;;;-146.25;100.00;52495.94;2088686;28;20897;-75
2023/01/31 01:53:23;;;;;;;27.85;2.20;;;;;;;-146.25;100.00;52461.47;2088145;28;32791;-75
2023/01/31 01:54:38;;;;;;;21.40;2.28;;;;;;;-146.25;100.00;52477.69;2079172;28;26660;-75
2023/01/31 01:55:46;;;;;;;28.45;2.08;;;;;;;-146.25;100.00;52487.81;2076392;28;31612;-75
2023/01/31 01:56:55;;;;;;;33.90;2.53;;;;;;;-146.25;100.00;52506.06;2083093;28;20046;-75
2023/01/31 01:58:07;;;;;;;30.30;2.25;;;;;;;-146.25;100.00;52510.13;2079909;28;33367;-75
2023/01/31 01:59:20;;;;;;;27.30;2.25;;;;;;;-146.25;100.00;52481.75;2082812;28;31945;-75
2023/01/31 02:00:27;;;;;;;34.78;2.40;;;;;;;-146.25;100.00;52504.03;2088377;28;20846;-75
2023/01/31 02:01:37;;;;;;;26.33;2.42;;;;;;;-146.25;100.00;52500.00;2072916;28;20970;-75
2023/01/31 02:02:46;;;;;;;33.17;2.50;;;;;;;-146.25;100.00;52514.19;2084032;28;20046;-75
2023/01/31 02:03:50;;;;;;;32.30;2.70;;;;;;;-146.25;100.00;52471.59;2080081;28;36148;-74
2023/01/31 02:04:54;;;;;;;28.10;2.45;;;;;;;-146.25;100.00;52495.94;2081345;28;33578;-75
2023/01/31 02:06:00;;;;;;;39.60;3.00;;;;;;;-146.25;100.00;52502.03;2088662;28;26443;-74
2023/01/31 02:07:03;;;;;;;29.05;2.45;;;;;;;-146.25;100.00;52443.22;2097076;28;20037;-75
2023/01/31 02:08:08;;;;;;;27.73;2.35;;;;;;;-146.25;100.00;52471.59;2088999;28;20182;-75
2023/01/31 02:09:34;;;;;;;25.83;2.33;;;;;;;-146.25;100.00;52445.25;2081205;28;20049;-75
2023/01/31 02:10:52;;;;;;;26.30;2.45;;;;;;;-146.25;100.00;52506.06;2092735;28;20988;-75
2023/01/31 02:11:54;;;;;;;30.83;2.17;;;;;;;-146.25;100.00;52493.91;2091313;28;29695;-75
2023/01/31 02:12:55;;;;;;;16.88;1.38;;;;;;;-146.25;100.00;52508.09;2088298;28;37313;-75
2023/01/31 02:14:07;;;;;;;30.65;3.05;;;;;;;-146.25;100.00;52451.31;2079782;28;37303;-74
2023/01/31 02:15:10;;;;;;;27.25;2.55;;;;;;;-146.25;100.00;52491.88;2074034;28;40234;-74
2023/01/31 02:16:12;;;;;;;22.02;2.00;;;;;;;-146.25;100.00;52506.06;2081746;28;20046;-74
2023/01/31 02:17:18;;;;;;;24.25;2.25;;;;;;;-146.25;100.00;52471.59;2088296;28;20046;-74
2023/01/31 02:18:24;;;;;;;19.90;2.20;;;;;;;-146.25;100.00;52491.88;2080525;28;20046;-75
2023/01/31 02:19:50;;;;;;;18.65;1.70;;;;;;;-146.25;100.00;52429.03;2071759;28;20034;-74
2023/01/31 02:21:20;;;;;;;29.30;2.17;;;;;;;-146.25;100.00;52497.97;2071144;28;20042;-74
2023/01/31 02:22:37;;;;;;;27.77;1.70;;;;;;;-146.25;100.00;52473.63;2080636;28;21022;-74
2023/01/31 02:23:59;;;;;;;30.35;2.40;;;;;;;-146.25;100.00;52445.25;2074412;28;20270;-74
2023/01/31 02:25:22;;;;;;;28.52;2.70;;;;;;;-146.25;100.00;52491.88;2074888;28;25766;-75
2023/01/31 02:27:03;;;;;;;22.15;2.40;;;;;;;-146.25;100.00;52516.22;2074719;28;20101;-75
2023/01/31 02:28:29;;;;;;;27.80;2.45;;;;;;;-146.25;100.00;52469.56;2077538;28;20042;-75
2023/01/31 02:30:19;;;;;;;32.53;2.30;;;;;;;-146.25;100.00;52473.63;2080981;28;20045;-75
2023/01/31 02:31:53;;;;;;;25.65;2.25;;;;;;;-146.25;100.00;52526.34;2080392;28;20858;-71
2023/01/31 02:33:25;;;;;;;25.02;2.22;;;;;;;-146.25;100.00;52495.94;2084253;28;20034;-75
2023/01/31 02:35:04;;;;;;;20.30;2.13;;;;;;;-146.25;100.00;52493.91;2080275;28;20057;-73
2023/01/31 02:36:30;;;;;;;28.30;2.45;;;;;;;-146.25;100.00;52502.03;2076947;28;20073;-74
2023/01/31 02:38:02;;;;;;;27.55;1.83;;;;;;;-146.25;100.00;52491.88;2066964;28;20148;-74
2023/01/31 02:39:55;;;;;;;28.30;2.25;;;;;;;-146.25;100.00;52469.56;2077136;28;20097;-74
2023/01/31 02:41:23;;;;;;;26.42;2.53;;;;;;;-146.25;100.00;52451.31;2071032;28;20042;-74
2023/01/31 02:42:46;;;;;;;26.25;2.35;;;;;;;-146.25;100.00;52493.91;2075783;28;20989;-74
2023/01/31 02:45:48;;;;;;;19.30;1.58;;;;;;;-146.25;100.00;52443.22;2088104;28;20045;-74
2023/01/31 02:47:23;;;;;;;27.27;2.17;;;;;;;-146.25;100.00;52469.56;2088255;28;20949;-74
2023/01/31 02:49:14;;;;;;;18.63;1.65;;;;;;;-146.25;100.00;52457.41;2086610;28;20114;-74
2023/01/31 02:50:48;;;;;;;31.63;2.25;;;;;;;-146.25;100.00;52526.34;2058674;28;20873;-75
2023/01/31 02:52:15;;;;;;;28.95;2.45;;;;;;;-146.25;100.00;52502.03;2076116;28;20050;-74
2023/01/31 02:53:49;;;;;;;24.15;1.77;;;;;;;-146.25;100.00;52481.75;2075028;28;20064;-74
2023/01/31 02:56:40;;;;;;;30.35;2.10;;;;;;;-146.25;100.00;52475.66;2085775;28;20780;-74
2023/01/31 02:57:48;;;;;;;21.40;2.33;;;;;;;-146.25;100.00;52485.81;2072405;28;20942;-74
2023/01/31 02:59:03;;;;;;;25.63;2.33;;;;;;;-146.25;100.00;52469.56;2072700;28;20042;-74
2023/01/31 03:00:07;;;;;;;28.50;2.20;;;;;;;-146.25;100.00;52495.94;2081068;28;23610;-74
2023/01/31 03:01:16;;;;;;;23.90;2.40;;;;;;;-146.25;100.00;52473.63;2087133;28;36875;-75
2023/01/31 03:02:20;;;;;;;31.38;2.60;;;;;;;-146.25;100.00;52473.63;2073015;28;20050;-75
2023/01/31 03:03:30;;;;;;;28.83;2.20;;;;;;;-146.25;100.00;52508.09;2081137;28;28321;-75
2023/01/31 03:04:35;;;;;;;29.30;2.17;;;;;;;-146.25;100.00;52479.72;2088545;28;36836;-75
2023/01/31 03:05:37;;;;;;;25.88;2.45;;;;;;;-146.25;100.00;52506.06;2088029;28;33085;-75
2023/01/31 03:06:53;;;;;;;25.00;2.00;;;;;;;-146.25;100.00;52504.03;2080283;28;30398;-75
2023/01/31 03:08:01;;;;;;;23.35;1.52;;;;;;;-146.25;100.00;52500.00;2090227;28;20042;-75
2023/01/31 03:09:09;;;;;;;24.50;2.30;;;;;;;-146.25;100.00;52471.59;2088615;28;20038;-75
2023/01/31 03:10:32;;;;;;;24.45;1.95;;;;;;;-146.25;100.00;52483.78;2072510;28;20077;-75
2023/01/31 03:11:52;;;;;;;21.23;2.00;;;;;;;-146.25;100.00;52475.66;2085733;28;35785;-75
2023/01/31 03:13:12;;;;;;;26.08;2.17;;;;;;;-146.25;100.00;52465.53;2094785;28;20037;-74
2023/01/31 03:14:33;;;;;;;26.75;1.88;;;;;;;-146.25;100.00;52481.75;2082636;28;20819;-74
2023/01/31 03:17:33;;;;;;;17.98;1.67;;;;;;;-146.25;100.00;52449.31;2085365;28;20107;-75
2023/01/31 03:19:20;;;;;;;26.75;1.90;;;;;;;-146.25;100.00;52491.88;2076754;28;20873;-75
2023/01/31 03:20:57;;;;;;;24.33;1.63;;;;;;;-146.25;100.00;52475.66;2088489;28;20862;-74
2023/01/31 03:22:06;;;;;;;19.90;1.83;;;;;;;-146.25;100.00;52471.59;2092026;28;20040;-74
2023/01/31 03:23:15;;;;;;;19.08;2.00;;;;;;;-146.25;100.00;52473.63;2097200;28;20940;-74
2023/01/31 03:24:18;;;;;;;26.40;1.52;;;;;;;-146.25;100.00;52463.50;2088782;28;20543;-74
2023/01/31 03:25:26;;;;;;;20.77;1.77;;;;;;;-146.25;100.00;52504.03;2079853;28;20046;-74
2023/01/31 03:26:32;;;;;;;23.15;1.63;;;;;;;-146.25;100.00;52461.47;2080038;28;20140;-74
2023/01/31 03:27:35;;;;;;;25.35;2.03;;;;;;;-146.25;100.00;52457.41;2064921;28;30116;-74
2023/01/31 03:28:42;;;;;;;30.85;2.13;;;;;;;-146.25;100.00;52489.84;2073550;28;20042;-74
2023/01/31 03:29:44;;;;;;;28.63;2.08;;;;;;;-146.25;100.00;52483.78;2089292;28;20045;-74
2023/01/31 03:30:58;;;;;;;19.25;1.50;;;;;;;-146.25;100.00;52481.75;2087797;28;20045;-74
2023/01/31 03:32:08;;;;;;;26.90;2.47;;;;;;;-146.25;100.00;52489.84;2081467;28;20998;-74
2023/01/31 03:33:24;;;;;;;19.23;1.60;;;;;;;-146.25;100.00;52481.75;2083039;28;20119;-74
2023/01/31 03:34:26;;;;;;;19.73;1.88;;;;;;;-146.25;100.00;52493.91;2081853;28;20046;-74
2023/01/31 03:35:33;;;;;;;26.30;2.05;;;;;;;-146.25;100.00;52469.56;2073641;28;20049;-74
2023/01/31 03:37:02;;;;;;;25.33;2.05;;;;;;;-146.25;100.00;52514.19;2079993;28;25375;-74
2023/01/31 03:38:29;;;;;;;25.55;1.85;;;;;;;-146.25;100.00;52487.81;2088827;28;20033;-74
2023/01/31 03:39:49;;;;;;;18.05;1.50;;;;;;;-146.25;100.00;52495.94;2088479;28;20741;-74
2023/01/31 03:41:03;;;;;;;23.95;1.90;;;;;;;-146.25;100.00;52473.63;2089973;28;20040;-74
2023/01/31 03:42:09;;;;;;;20.30;1.40;;;;;;;-146.25;100.00;52461.47;2079797;28;20034;-74
2023/01/31 03:45:17;;;;;;;20.30;1.48;;;;;;;-146.25;100.00;52502.03;2064355;28;20221;-71
2023/01/31 03:46:27;;;;;;;31.38;2.67;;;;;;;-146.25;100.00;52469.56;2066447;28;20256;-71
2023/01/31 03:47:41;;;;;;;20.40;1.83;;;;;;;-146.25;100.00;52514.19;2063174;28;20170;-71
2023/01/31 03:48:49;;;;;;;23.83;1.98;;;;;;;-146.25;100.00;52506.06;2064956;28;20197;-71
2023/01/31 03:50:00;;;;;;;24.60;1.65;;;;;;;-146.25;100.00;52485.81;2055505;28;20137;-71
2023/01/31 03:51:09;;;;;;;22.65;1.40;;;;;;;-146.25;100.00;52479.72;2058776;28;20857;-71
2023/01/31 03:52:18;;;;;;;20.60;1.70;;;;;;;-146.25;100.00;52431.06;2055442;28;20085;-71
2023/01/31 03:53:37;;;;;;;23.73;1.65;;;;;;;-146.25;100.00;52447.28;2058209;28;20125;-70
2023/01/31 03:54:49;;;;;;;25.52;1.80;;;;;;;-146.25;100.00;52510.13;2063713;28;20912;-71
2023/01/31 03:56:20;;;;;;;17.45;1.40;;;;;;;-146.25;100.00;52451.31;2057104;28;20916;-71
2023/01/31 03:57:33;;;;;;;20.48;1.40;;;;;;;-146.25;100.00;52473.63;2059331;28;20105;-71
2023/01/31 03:58:42;;;;;;;26.75;2.10;;;;;;;-146.25;100.00;52491.88;2048905;28;20055;-71
2023/01/31 03:59:52;;;;;;;21.05;1.73;;;;;;;-146.25;100.00;52483.78;2049537;28;20044;-71
2023/01/31 04:00:59;;;;;;;19.20;1.30;;;;;;;-146.25;100.00;52495.94;2058926;28;20214;-71
2023/01/31 04:02:06;;;;;;;20.00;1.58;;;;;;;-146.25;100.00;52487.81;2071686;28;20459;-71
2023/01/31 04:03:37;;;;;;;21.00;1.65;;;;;;;-146.25;100.00;52481.75;2071837;28;20054;-71
2023/01/31 04:04:44;;;;;;;;;;;;;;;-146.25;100.00;52477.69;2072295;28;20104;-72
2023/01/31 04:05:47;;;;;;;14.73;0.93;;;;;;;-146.25;99.80;52473.63;2070977;28;20010;-72
2023/01/31 04:06:49;;;;;;;16.90;1.33;;;;;;;-146.25;99.87;52516.22;2063324;28;20046;-71
2023/01/31 04:07:51;;;;;;;19.98;1.73;;;;;;;-146.25;99.81;52500.00;2063505;28;21015;-71
2023/01/31 04:08:57;;;;;;;25.20;1.63;;;;;;;-146.25;100.00;52477.69;2063657;28;20042;-71
2023/01/31 04:09:59;;;;;;;21.73;1.17;;;;;;;-146.25;100.00;52469.56;2063315;28;20880;-71
2023/01/31 04:11:08;;;;;;;13.82;1.90;;;;;;;-146.25;99.78;52504.03;2070531;28;37002;-71
2023/01/31 04:12:14;;;;;;;12.48;1.20;;;;;;;-146.25;99.92;52502.03;2063802;28;41743;-71
2023/01/31 04:13:15;;;;;;;20.70;1.17;;;;;;;-146.25;99.92;52479.72;2063942;28;26221;-71
2023/01/31 04:14:18;;;;;;;18.17;1.40;;;;;;;-146.25;99.86;52473.63;2070861;28;36049;-71
2023/01/31 04:15:19;;;;;;;16.55;1.48;;;;;;;-146.25;100.00;52477.69;2074227;28;36602;-72
2023/01/31 04:16:22;;;;;;;16.17;1.83;;;;;;;-146.25;100.00;52514.19;2070774;28;37252;-71
2023/01/31 04:17:24;;;;;;;21.98;1.45;;;;;;;-146.25;100.00;52485.81;2063451;28;39929;-72
2023/01/31 04:18:25;;;;;;;22.42;1.45;;;;;;;-146.25;99.78;52506.06;2070819;28;38601;-72
2023/01/31 04:19:27;;;;;;;14.98;1.27;;;;;;;-146.25;99.78;52512.16;2071157;28;31690;-72
2023/01/31 04:20:32;;;;;;;22.33;1.60;;;;;;;-146.25;99.59;52445.25;2063928;28;20027;-71
2023/01/31 04:21:33;;;;;;;16.70;1.10;;;;;;;-146.25;99.40;52433.06;2070593;28;40100;-72
2023/01/31 04:22:35;;;;;;;21.85;1.30;;;;;;;-146.25;99.26;52485.81;2069845;28;41321;-71
2023/01/31 04:23:39;;;;;;;14.75;1.60;;;;;;;-146.25;99.23;52487.81;2071184;28;38634;-71
2023/01/31 04:24:41;;;;;;;22.60;1.70;;;;;;;-146.25;99.19;52465.53;2070230;28;43005;-72
2023/01/31 04:25:43;;;;;;;22.58;1.63;;;;;;;-146.25;99.01;52469.56;2064670;28;20050;-71
2023/01/31 04:26:45;;;;;;;21.02;1.38;;;;;;;-146.25;99.16;52457.41;2063815;28;20047;-71
2023/01/31 04:27:47;;;;;;;19.05;1.38;;;;;;;-146.25;99.16;52526.34;2063409;28;39548;-72
2023/01/31 04:28:49;;;;;;;20.30;1.33;;;;;;;-146.25;99.26;52459.44;2062783;28;32629;-71
2023/01/31 04:29:51;;;;;;;15.30;1.20;;;;;;;-146.25;99.22;52467.56;2070511;28;40478;-71
2023/01/31 04:30:55;;;;;;;23.38;1.45;;;;;;;-146.25;98.83;52500.00;2070605;28;37441;-71
2023/01/31 04:31:57;;;;;;;17.48;1.40;;;;;;;-146.25;98.91;52497.97;2070801;28;37671;-71
2023/01/31 04:32:59;;;;;;;15.48;1.05;;;;;;;-146.25;98.77;52485.81;2070283;28;36384;-72
2023/01/31 04:34:00;;;;;;;19.67;1.00;;;;;;;-146.25;98.84;52471.59;2063143;28;35142;-72
2023/01/31 04:35:02;;;;;;;20.27;1.45;;;;;;;-146.25;99.09;52497.97;2070525;28;38227;-72
2023/01/31 04:36:04;;;;;;;19.33;1.35;;;;;;;-146.25;99.25;52508.09;2070760;28;39779;-72
2023/01/31 04:37:06;;;;;;;16.27;1.25;;;;;;;-146.25;98.80;52489.84;2063420;28;36679;-72
2023/01/31 04:38:08;;;;;;;18.60;1.20;;;;;;;-146.25;98.96;52477.69;2063668;28;33428;-72
2023/01/31 04:39:12;;;;;;;13.60;1.42;;;;;;;-146.25;98.92;52457.41;2062440;28;36569;-72
2023/01/31 04:40:14;;;;;;;19.92;1.83;;;;;;;-146.25;98.60;52445.25;2063070;28;37205;-70
2023/01/31 04:41:15;;;;;;;14.77;1.10;;;;;;;-146.25;98.79;52477.69;2062982;28;39027;-72
2023/01/31 04:42:17;;;;;;;18.25;1.27;;;;;;;-146.25;98.85;52485.81;2063418;28;37900;-71
2023/01/31 04:43:23;;;;;;;16.48;1.55;;;;;;;-146.25;99.11;52471.59;2062404;28;36359;-73
2023/01/31 04:44:25;;;;;;;21.42;1.40;;;;;;;-146.25;99.01;52441.19;2070669;28;33364;-71
2023/01/31 04:45:29;;;;;;;15.35;1.13;;;;;;;-146.25;99.07;52477.69;2069874;28;40320;-71
2023/01/31 04:46:30;;;;;;;21.95;1.48;;;;;;;-146.25;99.18;52467.56;2070649;28;36868;-71
2023/01/31 04:47:34;;;;;;;14.02;1.42;;;;;;;-146.25;98.96;52479.72;2071046;28;34059;-72
2023/01/31 04:48:38;;;;;;;15.50;1.35;;;;;;;-146.25;98.97;52483.78;2063068;28;38241;-71
2023/01/31 04:49:43;;;;;;;20.42;1.40;;;;;;;-146.25;98.99;52493.91;2070842;28;39741;-71
2023/01/31 04:50:45;;;;;;;16.65;1.30;;;;;;;-146.25;99.21;52463.50;2069988;28;37817;-71
2023/01/31 04:51:46;;;;;;;19.23;1.67;;;;;;;-146.25;99.17;52497.97;2062914;28;38592;-72
2023/01/31 04:52:50;;;;;;;17.30;1.35;;;;;;;-146.25;98.83;52489.84;2064128;28;20046;-72
2023/01/31 04:53:52;;;;;;;16.30;1.17;;;;;;;-146.25;99.23;52493.91;2063278;28;28091;-72
2023/01/31 04:54:53;;;;;;;14.98;1.30;;;;;;;-146.25;98.94;52461.47;2063627;28;37505;-71
2023/01/31 04:55:55;;;;;;;14.60;1.23;;;;;;;-146.25;99.20;52477.69;2061839;28;38218;-72
2023/01/31 04:56:57;;;;;;;16.08;1.05;;;;;;;-146.25;98.77;52500.00;2063336;28;32720;-72
2023/01/31 04:57:59;;;;;;;16.65;1.48;;;;;;;-146.25;98.80;52475.66;2063926;28;20113;-72
2023/01/31 04:59:01;;;;;;;18.27;1.77;;;;;;;-146.25;98.84;52485.81;2063509;28;32238;-71
2023/01/31 05:00:03;;;;;;;18.17;1.48;;;;;;;-146.25;98.94;52473.63;2063280;28;35667;-71
2023/01/31 05:01:05;;;;;;;20.48;2.03;;;;;;;-146.25;99.17;52449.31;2070995;28;34928;-72
2023/01/31 05:02:07;;;;;;;17.88;1.48;;;;;;;-146.25;98.82;52465.53;2070332;28;41199;-71
2023/01/31 05:03:09;;;;;;;13.95;1.17;;;;;;;-146.25;98.83;52516.22;2070492;28;38502;-71
2023/01/31 05:04:13;;;;;;;18.10;2.15;;;;;;;-146.25;98.96;52475.66;2069940;28;38893;-72
2023/01/31 05:05:15;;;;;;;11.57;1.20;;;;;;;-146.25;98.72;52518.25;2063184;28;42144;-71
2023/01/31 05:06:17;;;;;;;19.92;1.90;;;;;;;-146.25;98.80;52489.84;2063019;28;39900;-71
2023/01/31 05:07:18;;;;;;;19.85;1.65;;;;;;;-146.25;98.91;52477.69;2063063;28;39927;-72
2023/01/31 05:08:20;;;;;;;15.68;1.40;;;;;;;-146.25;99.01;52465.53;2062995;28;37004;-71
2023/01/31 05:09:23;;;;;;;14.57;1.27;;;;;;;-146.25;98.84;52447.28;2064140;28;22672;-71
2023/01/31 05:10:25;;;;;;;18.60;1.25;;;;;;;-146.25;98.98;52489.84;2062621;28;42417;-71
2023/01/31 05:11:28;;;;;;;19.77;1.60;;;;;;;-146.25;98.70;52483.78;2063005;28;35261;-71
2023/01/31 05:12:30;;;;;;;16.92;1.00;;;;;;;-146.25;98.93;52453.34;2070177;28;36956;-71
2023/01/31 05:13:37;;;;;;;18.33;1.42;;;;;;;-146.25;98.73;52445.25;2070607;28;41883;-71